^^
Saratoga-Weather Station Historical Data
Daily Summary for January 29, 2020 Units:  Both    English   Metric
Daily Weekly Monthly Yearly Custom
  High: Low: Average:
Temperature: 74.3 °F /  23.5 °C 32 °F /   °C 66.7 °F /  19.3 °C
Dew Point: 46.8 °F /  8.2 °C 32 °F /   °C 43.5 °F /  6.4 °C
Humidity: 63% % 43%
Wind Speed: 8.9mph /  14.3km/h - 2.2mph /  3.6km/h
Wind Gust: 14mph /  22.5km/h - -
Wind- - ESE
Pressure: 30.3 in /  1026.4 hPa 0 in /  0.0 hPa -
Precipitation: 0 in /  0.0 mm    
Historical Graphs
 
 
Tabular Data for January 29, 2020
Time Temperature Dew Point Pressure Wind Wind Speed Wind Gust Humidity Rainfall Rate (Hourly) solar
00:05 58.3 °F /  14.6 °C 40.3 °F /  4.6 °C 30.3in /  1026.1hPa ESE 0.9mph /  1.4km/h 2mph /  3.2km/h 51% 0in /  0.0mm 0 W/m2
00:10 58.3 °F /  14.6 °C 39.2 °F /  4 °C 30.3in /  1026.1hPa NNE 0.9mph /  1.4km/h 1mph /  1.6km/h 49% 0in /  0.0mm 0 W/m2
00:30 57.7 °F /  14.3 °C 40.6 °F /  4.8 °C 30.3in /  1026.4hPa WSW 0.9mph /  1.4km/h 2mph /  3.2km/h 53% 0in /  0.0mm 0 W/m2
00:35 57.2 °F /  14 °C 41.2 °F /  5.1 °C 30.3in /  1026.1hPa SW 2mph /  3.2km/h 3mph /  4.8km/h 55% 0in /  0.0mm 0 W/m2
00:40 56.7 °F /  13.7 °C 41.2 °F /  5.1 °C 30.3in /  1026.4hPa Calm   1mph /  1.6km/h 56% 0in /  0.0mm 0 W/m2
00:45 56.1 °F /  13.4 °C 41.2 °F /  5.1 °C 30.3in /  1026.4hPa SW 0.9mph /  1.4km/h 1mph /  1.6km/h 57% 0in /  0.0mm 0 W/m2
00:50 55.8 °F /  13.2 °C 40.8 °F /  4.9 °C 30.3in /  1026.4hPa Calm     57% 0in /  0.0mm 0 W/m2
00:55 55.2 °F /  12.9 °C 41.2 °F /  5.1 °C 30.3in /  1026.1hPa Calm   1mph /  1.6km/h 59% 0in /  0.0mm 0 W/m2
01:00 55 °F /  12.8 °C 40.5 °F /  4.7 °C 30.3in /  1026.1hPa SSE 0.9mph /  1.4km/h 1mph /  1.6km/h 58% 0in /  0.0mm 0 W/m2
01:10 54.7 °F /  12.6 °C 40.6 °F /  4.8 °C 30.3in /  1026.1hPa Calm   2mph /  3.2km/h 59% 0in /  0.0mm 0 W/m2
01:15 54.3 °F /  12.4 °C 40.8 °F /  4.9 °C 30.3in /  1026.1hPa SSE 0.9mph /  1.4km/h 2mph /  3.2km/h 60% 0in /  0.0mm 0 W/m2
01:20 54 °F /  12.2 °C 40.5 °F /  4.7 °C 30.3in /  1026.1hPa Calm   1mph /  1.6km/h 60% 0in /  0.0mm 0 W/m2
07:35 53.2 °F /  11.8 °C 41 °F /  5 °C 30.3in /  1025.7hPa Calm   2mph /  3.2km/h 63% 0in /  0.0mm 39 W/m2
07:40 53.4 °F /  11.9 °C 41.2 °F /  5.1 °C 30.3in /  1025.7hPa NNE 0.9mph /  1.4km/h 3mph /  4.8km/h 63% 0in /  0.0mm 167 W/m2
07:45 54 °F /  12.2 °C 41.2 °F /  5.1 °C 30.3in /  1025.7hPa NNE 0.9mph /  1.4km/h 4mph /  6.4km/h 62% 0in /  0.0mm 227 W/m2
07:50 54.7 °F /  12.6 °C 41.5 °F /  5.3 °C 30.3in /  1025.7hPa North 0.9mph /  1.4km/h 2mph /  3.2km/h 61% 0in /  0.0mm 244 W/m2
07:55 55.2 °F /  12.9 °C 42.1 °F /  5.6 °C 30.3in /  1025.7hPa Calm   4mph /  6.4km/h 61% 0in /  0.0mm 267 W/m2
08:00 56.3 °F /  13.5 °C 42.1 °F /  5.6 °C 30.3in /  1025.7hPa ESE 2.9mph /  4.7km/h 3mph /  4.8km/h 59% 0in /  0.0mm 279 W/m2
08:05 56.8 °F /  13.8 °C 42.6 °F /  5.9 °C 30.3in /  1025.7hPa Calm   4mph /  6.4km/h 59% 0in /  0.0mm 295 W/m2
08:10 57.2 °F /  14 °C 42.6 °F /  5.9 °C 30.3in /  1025.7hPa East 2mph /  3.2km/h 2mph /  3.2km/h 58% 0in /  0.0mm 309 W/m2
08:19 57.9 °F /  14.4 °C 42.8 °F /  6 °C 30.3in /  1025.7hPa ENE 0.9mph /  1.4km/h 5mph /  8km/h 57% 0in /  0.0mm 323 W/m2
08:23 32 °F /   °C 32 °F /   °C 0in /  0.0hPa Calm     % 0in /  0.0mm W/m2
08:32 32 °F /   °C 32 °F /   °C 0in /  0.0hPa Calm     % 0in /  0.0mm W/m2
08:42 32 °F /   °C 32 °F /   °C 0in /  0.0hPa Calm     % 0in /  0.0mm W/m2
08:46 59.5 °F /  15.3 °C 43.9 °F /  6.6 °C 30.3in /  1025.7hPa East 2.9mph /  4.7km/h 4mph /  6.4km/h 56% 0in /  0.0mm 408 W/m2
08:50 60.1 °F /  15.6 °C 43.9 °F /  6.6 °C 30.3in /  1025.7hPa ENE 4.9mph /  7.9km/h 8mph /  12.9km/h 55% 0in /  0.0mm 418 W/m2
08:55 60.4 °F /  15.8 °C 43.7 °F /  6.5 °C 30.3in /  1025.7hPa SE 2mph /  3.2km/h 6mph /  9.7km/h 54% 0in /  0.0mm 432 W/m2
09:01 61 °F /  16.1 °C 44.2 °F /  6.8 °C 30.3in /  1025.7hPa NW 0.9mph /  1.4km/h 3mph /  4.8km/h 54% 0in /  0.0mm 446 W/m2
09:06 61.2 °F /  16.2 °C 43.3 °F /  6.3 °C 30.3in /  1025.7hPa ENE 2mph /  3.2km/h 8mph /  12.9km/h 52% 0in /  0.0mm 461 W/m2
09:11 61.3 °F /  16.3 °C 44.1 °F /  6.7 °C 30.3in /  1025.4hPa ENE 2mph /  3.2km/h 2mph /  3.2km/h 53% 0in /  0.0mm 476 W/m2
09:16 62.2 °F /  16.8 °C 45 °F /  7.2 °C 30.3in /  1025.4hPa ENE 4.9mph /  7.9km/h 9mph /  14.5km/h 53% 0in /  0.0mm 490 W/m2
09:21 62.8 °F /  17.1 °C 43.9 °F /  6.6 °C 30.3in /  1025.4hPa North 0.9mph /  1.4km/h 7mph /  11.3km/h 50% 0in /  0.0mm 501 W/m2
09:26 63.1 °F /  17.3 °C 44.8 °F /  7.1 °C 30.3in /  1025.4hPa ENE 4mph /  6.4km/h 4mph /  6.4km/h 51% 0in /  0.0mm 517 W/m2
09:31 63.5 °F /  17.5 °C 44.6 °F /  7 °C 30.3in /  1025.4hPa East 0.9mph /  1.4km/h 8mph /  12.9km/h 50% 0in /  0.0mm 527 W/m2
09:36 63.9 °F /  17.7 °C 44.8 °F /  7.1 °C 30.3in /  1025.4hPa SE 2.9mph /  4.7km/h 7mph /  11.3km/h 50% 0in /  0.0mm 540 W/m2
09:41 64 °F /  17.8 °C 45 °F /  7.2 °C 30.3in /  1025.4hPa ESE 8.1mph /  13km/h 8mph /  12.9km/h 50% 0in /  0.0mm 554 W/m2
09:46 64 °F /  17.8 °C 44.4 °F /  6.9 °C 30.3in /  1025.4hPa ENE 4mph /  6.4km/h 10mph /  16.1km/h 49% 0in /  0.0mm 564 W/m2
09:51 64 °F /  17.8 °C 44.4 °F /  6.9 °C 30.3in /  1025.4hPa NE 2.9mph /  4.7km/h 5mph /  8km/h 49% 0in /  0.0mm 573 W/m2
09:56 64.8 °F /  18.2 °C 45.7 °F /  7.6 °C 30.3in /  1025.4hPa East 8.1mph /  13km/h 9mph /  14.5km/h 50% 0in /  0.0mm 547 W/m2
10:01 65.1 °F /  18.4 °C 44.4 °F /  6.9 °C 30.3in /  1025.4hPa East 2.9mph /  4.7km/h 7mph /  11.3km/h 47% 0in /  0.0mm 69 W/m2
10:06 65.3 °F /  18.5 °C 44.6 °F /  7 °C 30.3in /  1025.4hPa NE 2mph /  3.2km/h 8mph /  12.9km/h 47% 0in /  0.0mm 118 W/m2
10:11 65.7 °F /  18.7 °C 43.7 °F /  6.5 °C 30.3in /  1025.4hPa North 4mph /  6.4km/h 6mph /  9.7km/h 45% 0in /  0.0mm 622 W/m2
10:16 65.7 °F /  18.7 °C 44.2 °F /  6.8 °C 30.3in /  1025.4hPa ENE 2.9mph /  4.7km/h 10mph /  16.1km/h 46% 0in /  0.0mm 635 W/m2
10:21 65.7 °F /  18.7 °C 44.2 °F /  6.8 °C 30.3in /  1025.4hPa East 2.9mph /  4.7km/h 12mph /  19.3km/h 46% 0in /  0.0mm 645 W/m2
10:26 65.7 °F /  18.7 °C 43.2 °F /  6.2 °C 30.3in /  1025.4hPa ENE 2.9mph /  4.7km/h 8mph /  12.9km/h 44% 0in /  0.0mm 652 W/m2
10:31 65.8 °F /  18.8 °C 43.9 °F /  6.6 °C 30.3in /  1025.1hPa ENE 2.9mph /  4.7km/h 12mph /  19.3km/h 45% 0in /  0.0mm 663 W/m2
10:36 66.4 °F /  19.1 °C 44.4 °F /  6.9 °C 30.3in /  1025.1hPa ENE 0.9mph /  1.4km/h 11mph /  17.7km/h 45% 0in /  0.0mm 691 W/m2
10:41 66.9 °F /  19.4 °C 45 °F /  7.2 °C 30.3in /  1025.1hPa SE 0.9mph /  1.4km/h 6mph /  9.7km/h 45% 0in /  0.0mm 696 W/m2
10:46 67.1 °F /  19.5 °C 44.4 °F /  6.9 °C 30.3in /  1025.1hPa NE 2mph /  3.2km/h 9mph /  14.5km/h 44% 0in /  0.0mm 708 W/m2
10:51 66.9 °F /  19.4 °C 44.2 °F /  6.8 °C 30.3in /  1025.1hPa ENE 6mph /  9.7km/h 6mph /  9.7km/h 44% 0in /  0.0mm 714 W/m2
10:56 67.3 °F /  19.6 °C 44.6 °F /  7 °C 30.3in /  1025.1hPa ESE 8.1mph /  13km/h 14mph /  22.5km/h 44% 0in /  0.0mm 731 W/m2
11:01 67.5 °F /  19.7 °C 44.8 °F /  7.1 °C 30.3in /  1025.1hPa SE 4mph /  6.4km/h 6mph /  9.7km/h 44% 0in /  0.0mm 719 W/m2
11:07 67.5 °F /  19.7 °C 43.5 °F /  6.4 °C 30.3in /  1025.1hPa ENE 4mph /  6.4km/h 9mph /  14.5km/h 42% 0in /  0.0mm 735 W/m2
11:12 66.9 °F /  19.4 °C 43.7 °F /  6.5 °C 30.3in /  1025.1hPa SE 2.9mph /  4.7km/h 7mph /  11.3km/h 43% 0in /  0.0mm 749 W/m2
11:17 66.9 °F /  19.4 °C 44.2 °F /  6.8 °C 30.3in /  1025.1hPa SE 2mph /  3.2km/h 3mph /  4.8km/h 44% 0in /  0.0mm 752 W/m2
11:22 66.9 °F /  19.4 °C 43.7 °F /  6.5 °C 30.3in /  1025.1hPa NE 2.9mph /  4.7km/h 9mph /  14.5km/h 43% 0in /  0.0mm 784 W/m2
11:27 66.7 °F /  19.3 °C 44.8 °F /  7.1 °C 30.3in /  1025.1hPa ENE 0.9mph /  1.4km/h 8mph /  12.9km/h 45% 0in /  0.0mm 814 W/m2
11:32 67.3 °F /  19.6 °C 45.1 °F /  7.3 °C 30.3in /  1025.1hPa ESE 4mph /  6.4km/h 5mph /  8km/h 45% 0in /  0.0mm 812 W/m2
11:37 67.3 °F /  19.6 °C 44.1 °F /  6.7 °C 30.3in /  1025.1hPa ENE 2.9mph /  4.7km/h 12mph /  19.3km/h 43% 0in /  0.0mm 230 W/m2
11:42 67.5 °F /  19.7 °C 44.2 °F /  6.8 °C 30.3in /  1024.7hPa ENE 0.9mph /  1.4km/h 8mph /  12.9km/h 43% 0in /  0.0mm 814 W/m2
11:47 68.2 °F /  20.1 °C 44.8 °F /  7.1 °C 30.3in /  1024.7hPa ESE 2.9mph /  4.7km/h 11mph /  17.7km/h 43% 0in /  0.0mm 828 W/m2
11:52 68.9 °F /  20.5 °C 44.8 °F /  7.1 °C 30.3in /  1024.7hPa SSE 0.9mph /  1.4km/h 5mph /  8km/h 42% 0in /  0.0mm 837 W/m2
11:57 69.3 °F /  20.7 °C 44.6 °F /  7 °C 30.3in /  1024.7hPa NE 4mph /  6.4km/h 14mph /  22.5km/h 41% 0in /  0.0mm 830 W/m2
12:02 68.7 °F /  20.4 °C 43.3 °F /  6.3 °C 30.3in /  1024.7hPa ENE 4.9mph /  7.9km/h 9mph /  14.5km/h 40% 0in /  0.0mm 837 W/m2
12:07 68.5 °F /  20.3 °C 43.3 °F /  6.3 °C 30.3in /  1024.7hPa ESE 0.9mph /  1.4km/h 14mph /  22.5km/h 40% 0in /  0.0mm 860 W/m2
12:12 68.9 °F /  20.5 °C 45.5 °F /  7.5 °C 30.3in /  1024.7hPa East 4.9mph /  7.9km/h 6mph /  9.7km/h 43% 0in /  0.0mm 860 W/m2
12:17 69.4 °F /  20.8 °C 43.3 °F /  6.3 °C 30.3in /  1024.7hPa ENE 6mph /  9.7km/h 6mph /  9.7km/h 39% 0in /  0.0mm 856 W/m2
12:22 69.3 °F /  20.7 °C 43.9 °F /  6.6 °C 30.3in /  1024.7hPa SSE 4mph /  6.4km/h 9mph /  14.5km/h 40% 0in /  0.0mm 891 W/m2
12:27 69.6 °F /  20.9 °C 44.2 °F /  6.8 °C 30.3in /  1024.4hPa SE 2.9mph /  4.7km/h 10mph /  16.1km/h 40% 0in /  0.0mm 881 W/m2
12:32 70 °F /  21.1 °C 44.6 °F /  7 °C 30.3in /  1024.4hPa ENE 4mph /  6.4km/h 8mph /  12.9km/h 40% 0in /  0.0mm 882 W/m2
12:37 70.3 °F /  21.3 °C 44.2 °F /  6.8 °C 30.3in /  1024.4hPa SSE 2mph /  3.2km/h 5mph /  8km/h 39% 0in /  0.0mm 884 W/m2
12:42 70.5 °F /  21.4 °C 43.7 °F /  6.5 °C 30.3in /  1024.4hPa NE 2.9mph /  4.7km/h 7mph /  11.3km/h 38% 0in /  0.0mm 879 W/m2
12:47 70.7 °F /  21.5 °C 44.6 °F /  7 °C 30.2in /  1024.0hPa SE 4mph /  6.4km/h 4mph /  6.4km/h 39% 0in /  0.0mm 884 W/m2
12:52 70.9 °F /  21.6 °C 44.1 °F /  6.7 °C 30.2in /  1024.0hPa Calm   7mph /  11.3km/h 38% 0in /  0.0mm 886 W/m2
12:57 70.9 °F /  21.6 °C 44.1 °F /  6.7 °C 30.2in /  1024.0hPa ESE 8.1mph /  13km/h 8mph /  12.9km/h 38% 0in /  0.0mm 888 W/m2
13:02 70.9 °F /  21.6 °C 44.1 °F /  6.7 °C 30.2in /  1024.0hPa ESE 6mph /  9.7km/h 12mph /  19.3km/h 38% 0in /  0.0mm 895 W/m2
13:07 70.9 °F /  21.6 °C 44.1 °F /  6.7 °C 30.2in /  1024.0hPa SW 2mph /  3.2km/h 4mph /  6.4km/h 38% 0in /  0.0mm 896 W/m2
13:12 71.1 °F /  21.7 °C 44.2 °F /  6.8 °C 30.2in /  1024.0hPa NE 0.9mph /  1.4km/h 12mph /  19.3km/h 38% 0in /  0.0mm 926 W/m2
13:17 70.5 °F /  21.4 °C 43 °F /  6.1 °C 30.2in /  1024.0hPa NE 4mph /  6.4km/h 10mph /  16.1km/h 37% 0in /  0.0mm 188 W/m2
13:22 69.6 °F /  20.9 °C 42.8 °F /  6 °C 30.2in /  1023.7hPa ESE 0.9mph /  1.4km/h 6mph /  9.7km/h 38% 0in /  0.0mm 241 W/m2
13:27 69.6 °F /  20.9 °C 45 °F /  7.2 °C 30.2in /  1023.7hPa SE 2mph /  3.2km/h 7mph /  11.3km/h 41% 0in /  0.0mm 858 W/m2
13:32 70.3 °F /  21.3 °C 46.8 °F /  8.2 °C 30.2in /  1023.7hPa North 2mph /  3.2km/h 3mph /  4.8km/h 43% 0in /  0.0mm 914 W/m2
13:37 71.1 °F /  21.7 °C 44.2 °F /  6.8 °C 30.2in /  1023.7hPa SE 0.9mph /  1.4km/h 1mph /  1.6km/h 38% 0in /  0.0mm 928 W/m2
13:43 71.8 °F /  22.1 °C 45.5 °F /  7.5 °C 30.2in /  1023.7hPa East 4.9mph /  7.9km/h 8mph /  12.9km/h 39% 0in /  0.0mm 942 W/m2
13:48 71.8 °F /  22.1 °C 43.3 °F /  6.3 °C 30.2in /  1023.7hPa ENE 4mph /  6.4km/h 8mph /  12.9km/h 36% 0in /  0.0mm 953 W/m2
13:53 71.4 °F /  21.9 °C 43.7 °F /  6.5 °C 30.2in /  1023.7hPa SSE 2mph /  3.2km/h 11mph /  17.7km/h 37% 0in /  0.0mm 891 W/m2
13:58 71.2 °F /  21.8 °C 45 °F /  7.2 °C 30.2in /  1023.4hPa NE 2.9mph /  4.7km/h 6mph /  9.7km/h 39% 0in /  0.0mm 900 W/m2
14:03 71.4 °F /  21.9 °C 45.1 °F /  7.3 °C 30.2in /  1023.4hPa NE 4mph /  6.4km/h 11mph /  17.7km/h 39% 0in /  0.0mm 918 W/m2
14:08 71.8 °F /  22.1 °C 45.5 °F /  7.5 °C 30.2in /  1023.4hPa East 0.9mph /  1.4km/h 8mph /  12.9km/h 39% 0in /  0.0mm 1037 W/m2
14:13 72.1 °F /  22.3 °C 45.1 °F /  7.3 °C 30.2in /  1023.4hPa SE 2mph /  3.2km/h 10mph /  16.1km/h 38% 0in /  0.0mm 830 W/m2
14:18 72.1 °F /  22.3 °C 43.7 °F /  6.5 °C 30.2in /  1023.4hPa NW 0.9mph /  1.4km/h 4mph /  6.4km/h 36% 0in /  0.0mm 960 W/m2
14:23 72.5 °F /  22.5 °C 44.1 °F /  6.7 °C 30.2in /  1023.4hPa East 2mph /  3.2km/h 7mph /  11.3km/h 36% 0in /  0.0mm 1041 W/m2
14:28 72.9 °F /  22.7 °C 45.1 °F /  7.3 °C 30.2in /  1023.4hPa WNW 0.9mph /  1.4km/h 6mph /  9.7km/h 37% 0in /  0.0mm 1005 W/m2
14:33 72.9 °F /  22.7 °C 44.4 °F /  6.9 °C 30.2in /  1023.4hPa NE 4mph /  6.4km/h 10mph /  16.1km/h 36% 0in /  0.0mm 993 W/m2
14:38 71.8 °F /  22.1 °C 44.1 °F /  6.7 °C 30.2in /  1023.0hPa ESE 2.9mph /  4.7km/h 8mph /  12.9km/h 37% 0in /  0.0mm 1039 W/m2
14:43 71.8 °F /  22.1 °C 43.3 °F /  6.3 °C 30.2in /  1023.0hPa ESE 8.1mph /  13km/h 10mph /  16.1km/h 36% 0in /  0.0mm 937 W/m2
14:48 72 °F /  22.2 °C 43.5 °F /  6.4 °C 30.2in /  1023.0hPa North 2.9mph /  4.7km/h 6mph /  9.7km/h 36% 0in /  0.0mm 872 W/m2
14:53 72.3 °F /  22.4 °C 43.2 °F /  6.2 °C 30.2in /  1023.0hPa NE 0.9mph /  1.4km/h 5mph /  8km/h 35% 0in /  0.0mm 867 W/m2
14:58 72.1 °F /  22.3 °C 43.7 °F /  6.5 °C 30.2in /  1022.7hPa NE 2.9mph /  4.7km/h 7mph /  11.3km/h 36% 0in /  0.0mm 872 W/m2
15:03 72.1 °F /  22.3 °C 44.4 °F /  6.9 °C 30.2in /  1022.7hPa NNE 2mph /  3.2km/h 8mph /  12.9km/h 37% 0in /  0.0mm 870 W/m2
15:08 72.7 °F /  22.6 °C 44.2 °F /  6.8 °C 30.2in /  1023.0hPa ENE 2.9mph /  4.7km/h 10mph /  16.1km/h 36% 0in /  0.0mm 853 W/m2
15:13 72.7 °F /  22.6 °C 43.5 °F /  6.4 °C 30.2in /  1022.7hPa NNE 4.9mph /  7.9km/h 9mph /  14.5km/h 35% 0in /  0.0mm 851 W/m2
15:18 72.9 °F /  22.7 °C 44.4 °F /  6.9 °C 30.2in /  1022.7hPa East 4mph /  6.4km/h 7mph /  11.3km/h 36% 0in /  0.0mm 837 W/m2
15:23 72.9 °F /  22.7 °C 44.4 °F /  6.9 °C 30.2in /  1022.7hPa East 0.9mph /  1.4km/h 8mph /  12.9km/h 36% 0in /  0.0mm 835 W/m2
15:28 73 °F /  22.8 °C 45.9 °F /  7.7 °C 30.2in /  1022.4hPa East 6mph /  9.7km/h 6mph /  9.7km/h 38% 0in /  0.0mm 816 W/m2
15:33 73 °F /  22.8 °C 45.1 °F /  7.3 °C 30.2in /  1022.7hPa NE 4.9mph /  7.9km/h 8mph /  12.9km/h 37% 0in /  0.0mm 726 W/m2
15:38 73 °F /  22.8 °C 43.7 °F /  6.5 °C 30.2in /  1022.4hPa NE 0.9mph /  1.4km/h 5mph /  8km/h 35% 0in /  0.0mm 812 W/m2
15:44 73.2 °F /  22.9 °C 43.9 °F /  6.6 °C 30.2in /  1022.4hPa ESE 2mph /  3.2km/h 6mph /  9.7km/h 35% 0in /  0.0mm 807 W/m2
15:49 73.4 °F /  23 °C 44.1 °F /  6.7 °C 30.2in /  1022.4hPa ENE 0.9mph /  1.4km/h 7mph /  11.3km/h 35% 0in /  0.0mm 784 W/m2
15:54 73.2 °F /  22.9 °C 44.6 °F /  7 °C 30.2in /  1022.4hPa SSE 6mph /  9.7km/h 8mph /  12.9km/h 36% 0in /  0.0mm 793 W/m2
15:59 73.2 °F /  22.9 °C 43.9 °F /  6.6 °C 30.2in /  1022.4hPa ENE 2mph /  3.2km/h 7mph /  11.3km/h 35% 0in /  0.0mm 777 W/m2
16:04 73.2 °F /  22.9 °C 43.9 °F /  6.6 °C 30.2in /  1022.0hPa ESE 2mph /  3.2km/h 3mph /  4.8km/h 35% 0in /  0.0mm 775 W/m2
16:09 73.4 °F /  23 °C 45.5 °F /  7.5 °C 30.2in /  1022.0hPa East 0.9mph /  1.4km/h 9mph /  14.5km/h 37% 0in /  0.0mm 752 W/m2
16:14 73.6 °F /  23.1 °C 44.2 °F /  6.8 °C 30.2in /  1022.0hPa NE 2.9mph /  4.7km/h 13mph /  20.9km/h 35% 0in /  0.0mm 749 W/m2
16:19 73.8 °F /  23.2 °C 45.9 °F /  7.7 °C 30.2in /  1022.0hPa SSE 2.9mph /  4.7km/h 6mph /  9.7km/h 37% 0in /  0.0mm 733 W/m2
16:24 73.8 °F /  23.2 °C 45.1 °F /  7.3 °C 30.2in /  1022.0hPa ESE 4mph /  6.4km/h 6mph /  9.7km/h 36% 0in /  0.0mm 726 W/m2
16:29 73.9 °F /  23.3 °C 44.6 °F /  7 °C 30.2in /  1021.7hPa NE 2.9mph /  4.7km/h 5mph /  8km/h 35% 0in /  0.0mm 719 W/m2
16:34 74.1 °F /  23.4 °C 44.8 °F /  7.1 °C 30.2in /  1021.7hPa ENE 2mph /  3.2km/h 2mph /  3.2km/h 35% 0in /  0.0mm 726 W/m2
16:39 74.3 °F /  23.5 °C 44.1 °F /  6.7 °C 30.2in /  1021.7hPa NE 4.9mph /  7.9km/h 9mph /  14.5km/h 34% 0in /  0.0mm 751 W/m2
16:44 73.4 °F /  23 °C 43.3 °F /  6.3 °C 30.2in /  1021.7hPa SE 2mph /  3.2km/h 10mph /  16.1km/h 34% 0in /  0.0mm 151 W/m2
16:49 72.9 °F /  22.7 °C 43.5 °F /  6.4 °C 30.2in /  1021.3hPa NE 2.9mph /  4.7km/h 5mph /  8km/h 35% 0in /  0.0mm 686 W/m2
16:54 73 °F /  22.8 °C 43.7 °F /  6.5 °C 30.2in /  1021.7hPa WNW 2mph /  3.2km/h 11mph /  17.7km/h 35% 0in /  0.0mm 659 W/m2
16:59 73 °F /  22.8 °C 43.7 °F /  6.5 °C 30.2in /  1021.3hPa ENE 4mph /  6.4km/h 9mph /  14.5km/h 35% 0in /  0.0mm 652 W/m2
17:04 73.2 °F /  22.9 °C 44.6 °F /  7 °C 30.2in /  1021.3hPa NW 4mph /  6.4km/h 11mph /  17.7km/h 36% 0in /  0.0mm 636 W/m2
17:09 73.6 °F /  23.1 °C 43.5 °F /  6.4 °C 30.2in /  1021.3hPa NW 4mph /  6.4km/h 14mph /  22.5km/h 34% 0in /  0.0mm 626 W/m2
17:14 73.8 °F /  23.2 °C 44.4 °F /  6.9 °C 30.2in /  1021.3hPa East 0.9mph /  1.4km/h 5mph /  8km/h 35% 0in /  0.0mm 622 W/m2
17:20 74.1 °F /  23.4 °C 43.9 °F /  6.6 °C 30.2in /  1021.3hPa NE 2.9mph /  4.7km/h 11mph /  17.7km/h 34% 0in /  0.0mm 598 W/m2
17:25 73.9 °F /  23.3 °C 44.6 °F /  7 °C 30.2in /  1021.3hPa East 4mph /  6.4km/h 10mph /  16.1km/h 35% 0in /  0.0mm 580 W/m2
17:30 73.8 °F /  23.2 °C 44.4 °F /  6.9 °C 30.2in /  1021.3hPa North 0.9mph /  1.4km/h 11mph /  17.7km/h 35% 0in /  0.0mm 573 W/m2
17:35 73.6 °F /  23.1 °C 45 °F /  7.2 °C 30.2in /  1021.3hPa NNW 2mph /  3.2km/h 7mph /  11.3km/h 36% 0in /  0.0mm 559 W/m2
17:40 73.6 °F /  23.1 °C 44.2 °F /  6.8 °C 30.2in /  1021.3hPa East 2.9mph /  4.7km/h 5mph /  8km/h 35% 0in /  0.0mm 541 W/m2
17:45 73.6 °F /  23.1 °C 43.5 °F /  6.4 °C 30.2in /  1021.3hPa Calm   7mph /  11.3km/h 34% 0in /  0.0mm 531 W/m2
17:50 73.6 °F /  23.1 °C 44.2 °F /  6.8 °C 30.2in /  1021.3hPa ENE 0.9mph /  1.4km/h 6mph /  9.7km/h 35% 0in /  0.0mm 519 W/m2
17:55 73.6 °F /  23.1 °C 43.5 °F /  6.4 °C 30.2in /  1021.0hPa SSE 2mph /  3.2km/h 3mph /  4.8km/h 34% 0in /  0.0mm 508 W/m2
18:00 73.9 °F /  23.3 °C 44.6 °F /  7 °C 30.2in /  1021.0hPa ENE 2.9mph /  4.7km/h 6mph /  9.7km/h 35% 0in /  0.0mm 492 W/m2
18:05 74.1 °F /  23.4 °C 45.5 °F /  7.5 °C 30.2in /  1021.0hPa East 0.9mph /  1.4km/h 3mph /  4.8km/h 36% 0in /  0.0mm 480 W/m2
18:10 73.8 °F /  23.2 °C 42.8 °F /  6 °C 30.2in /  1021.0hPa SE 2.9mph /  4.7km/h 10mph /  16.1km/h 33% 0in /  0.0mm 454 W/m2
18:15 73.2 °F /  22.9 °C 43.2 °F /  6.2 °C 30.2in /  1021.0hPa East 6mph /  9.7km/h 6mph /  9.7km/h 34% 0in /  0.0mm 450 W/m2
18:20 73.2 °F /  22.9 °C 43.2 °F /  6.2 °C 30.2in /  1021.0hPa NE 2.9mph /  4.7km/h 13mph /  20.9km/h 34% 0in /  0.0mm 431 W/m2
18:25 73.6 °F /  23.1 °C 43.5 °F /  6.4 °C 30.2in /  1021.0hPa NE 4mph /  6.4km/h 4mph /  6.4km/h 34% 0in /  0.0mm 394 W/m2
18:30 73.8 °F /  23.2 °C 45.1 °F /  7.3 °C 30.1in /  1020.7hPa ESE 0.9mph /  1.4km/h 4mph /  6.4km/h 36% 0in /  0.0mm 360 W/m2
18:35 73.9 °F /  23.3 °C 43.9 °F /  6.6 °C 30.2in /  1021.0hPa East 4mph /  6.4km/h 9mph /  14.5km/h 34% 0in /  0.0mm 334 W/m2
18:40 73.8 °F /  23.2 °C 43.7 °F /  6.5 °C 30.2in /  1021.0hPa ENE 8.1mph /  13km/h 12mph /  19.3km/h 34% 0in /  0.0mm 309 W/m2
18:45 73.6 °F /  23.1 °C 43.5 °F /  6.4 °C 30.2in /  1021.0hPa ESE 2mph /  3.2km/h 9mph /  14.5km/h 34% 0in /  0.0mm 290 W/m2
18:50 73.6 °F /  23.1 °C 43.5 °F /  6.4 °C 30.1in /  1020.7hPa ESE 4mph /  6.4km/h 4mph /  6.4km/h 34% 0in /  0.0mm 265 W/m2
18:55 73.6 °F /  23.1 °C 43.5 °F /  6.4 °C 30.1in /  1020.7hPa NE 2.9mph /  4.7km/h 9mph /  14.5km/h 34% 0in /  0.0mm 241 W/m2
19:00 73.6 °F /  23.1 °C 43.5 °F /  6.4 °C 30.1in /  1020.7hPa ENE 2mph /  3.2km/h 4mph /  6.4km/h 34% 0in /  0.0mm 234 W/m2
19:05 73.4 °F /  23 °C 44.1 °F /  6.7 °C 30.1in /  1020.7hPa South 2.9mph /  4.7km/h 4mph /  6.4km/h 35% 0in /  0.0mm 241 W/m2
19:10 73.6 °F /  23.1 °C 44.2 °F /  6.8 °C 30.1in /  1020.7hPa ESE 2mph /  3.2km/h 3mph /  4.8km/h 35% 0in /  0.0mm 257 W/m2
19:15 73.6 °F /  23.1 °C 44.2 °F /  6.8 °C 30.1in /  1020.7hPa ESE 2mph /  3.2km/h 4mph /  6.4km/h 35% 0in /  0.0mm 271 W/m2
19:20 73.4 °F /  23 °C 44.1 °F /  6.7 °C 30.1in /  1020.7hPa East 0.9mph /  1.4km/h 5mph /  8km/h 35% 0in /  0.0mm 269 W/m2
19:25 73 °F /  22.8 °C 43 °F /  6.1 °C 30.1in /  1020.7hPa ENE 8.9mph /  14.3km/h 12mph /  19.3km/h 34% 0in /  0.0mm 253 W/m2
19:30 72.7 °F /  22.6 °C 42.6 °F /  5.9 °C 30.1in /  1020.7hPa ENE 0.9mph /  1.4km/h 3mph /  4.8km/h 34% 0in /  0.0mm 237 W/m2
19:35 72.7 °F /  22.6 °C 43.5 °F /  6.4 °C 30.1in /  1020.7hPa ENE 2.9mph /  4.7km/h 12mph /  19.3km/h 35% 0in /  0.0mm 221 W/m2
19:40 72.5 °F /  22.5 °C 43.3 °F /  6.3 °C 30.1in /  1020.7hPa NE 2mph /  3.2km/h 3mph /  4.8km/h 35% 0in /  0.0mm 188 W/m2
19:45 72.1 °F /  22.3 °C 43 °F /  6.1 °C 30.1in /  1020.7hPa South 2mph /  3.2km/h 9mph /  14.5km/h 35% 0in /  0.0mm 156 W/m2
19:50 72 °F /  22.2 °C 43.5 °F /  6.4 °C 30.1in /  1020.7hPa East 2.9mph /  4.7km/h 3mph /  4.8km/h 36% 0in /  0.0mm 146 W/m2
19:55 71.8 °F /  22.1 °C 42.6 °F /  5.9 °C 30.1in /  1020.7hPa East 6.9mph /  11.1km/h 9mph /  14.5km/h 35% 0in /  0.0mm 142 W/m2
20:00 71.6 °F /  22 °C 43.9 °F /  6.6 °C 30.1in /  1020.7hPa East 8.1mph /  13km/h 8mph /  12.9km/h 37% 0in /  0.0mm 142 W/m2
20:05 71.4 °F /  21.9 °C 43.2 °F /  6.2 °C 30.1in /  1020.7hPa ESE 2mph /  3.2km/h 11mph /  17.7km/h 36% 0in /  0.0mm 132 W/m2
20:10 71.2 °F /  21.8 °C 43 °F /  6.1 °C 30.1in /  1020.7hPa SE 0.9mph /  1.4km/h 3mph /  4.8km/h 36% 0in /  0.0mm 120 W/m2
20:15 71.1 °F /  21.7 °C 43.5 °F /  6.4 °C 30.1in /  1020.7hPa East 2mph /  3.2km/h 11mph /  17.7km/h 37% 0in /  0.0mm 104 W/m2
20:20 70.9 °F /  21.6 °C 43.3 °F /  6.3 °C 30.1in /  1020.7hPa ENE 2.9mph /  4.7km/h 5mph /  8km/h 37% 0in /  0.0mm 91 W/m2
20:25 70.5 °F /  21.4 °C 43.7 °F /  6.5 °C 30.1in /  1020.3hPa ESE 2.9mph /  4.7km/h 8mph /  12.9km/h 38% 0in /  0.0mm 81 W/m2
20:30 70.3 °F /  21.3 °C 42.8 °F /  6 °C 30.1in /  1020.7hPa ESE 2mph /  3.2km/h 8mph /  12.9km/h 37% 0in /  0.0mm 72 W/m2
20:35 70.2 °F /  21.2 °C 43.3 °F /  6.3 °C 30.1in /  1020.7hPa ENE 0.9mph /  1.4km/h 4mph /  6.4km/h 38% 0in /  0.0mm 58 W/m2
20:40 69.6 °F /  20.9 °C 42.8 °F /  6 °C 30.1in /  1020.3hPa ESE 2mph /  3.2km/h 5mph /  8km/h 38% 0in /  0.0mm 47 W/m2
20:45 69.4 °F /  20.8 °C 42.8 °F /  6 °C 30.1in /  1020.3hPa ENE 0.9mph /  1.4km/h 3mph /  4.8km/h 38% 0in /  0.0mm 46 W/m2
20:50 69.3 °F /  20.7 °C 43.2 °F /  6.2 °C 30.1in /  1020.3hPa East 2.9mph /  4.7km/h 3mph /  4.8km/h 39% 0in /  0.0mm 37 W/m2
20:56 68.7 °F /  20.4 °C 44.1 °F /  6.7 °C 30.1in /  1020.3hPa ESE 0.9mph /  1.4km/h 2mph /  3.2km/h 41% 0in /  0.0mm 32 W/m2
21:01 68.4 °F /  20.2 °C 43.2 °F /  6.2 °C 30.1in /  1020.7hPa Calm   3mph /  4.8km/h 40% 0in /  0.0mm 26 W/m2
21:06 68.2 °F /  20.1 °C 43 °F /  6.1 °C 30.1in /  1020.7hPa Calm   2mph /  3.2km/h 40% 0in /  0.0mm 21 W/m2
21:11 67.6 °F /  19.8 °C 43.7 °F /  6.5 °C 30.1in /  1020.3hPa ESE 0.9mph /  1.4km/h 1mph /  1.6km/h 42% 0in /  0.0mm 14 W/m2
21:16 67.3 °F /  19.6 °C 42.8 °F /  6 °C 30.1in /  1020.3hPa Calm   2mph /  3.2km/h 41% 0in /  0.0mm 11 W/m2
21:21 66.7 °F /  19.3 °C 43.5 °F /  6.4 °C 30.1in /  1020.7hPa NE 2.9mph /  4.7km/h 3mph /  4.8km/h 43% 0in /  0.0mm 9 W/m2
21:26 66.4 °F /  19.1 °C 43.2 °F /  6.2 °C 30.1in /  1020.7hPa East 0.9mph /  1.4km/h 2mph /  3.2km/h 43% 0in /  0.0mm 7 W/m2
21:31 66 °F /  18.9 °C 42.8 °F /  6 °C 30.1in /  1020.7hPa SE 0.9mph /  1.4km/h 2mph /  3.2km/h 43% 0in /  0.0mm 5 W/m2
21:36 65.7 °F /  18.7 °C 43.2 °F /  6.2 °C 30.1in /  1020.7hPa SE 0.9mph /  1.4km/h 1mph /  1.6km/h 44% 0in /  0.0mm 0 W/m2
21:41 65.1 °F /  18.4 °C 43.9 °F /  6.6 °C 30.1in /  1020.7hPa Calm   1mph /  1.6km/h 46% 0in /  0.0mm 0 W/m2
21:46 64.8 °F /  18.2 °C 43.5 °F /  6.4 °C 30.1in /  1020.7hPa Calm     46% 0in /  0.0mm 0 W/m2
21:51 64.2 °F /  17.9 °C 43.5 °F /  6.4 °C 30.1in /  1020.7hPa Calm   1mph /  1.6km/h 47% 0in /  0.0mm 0 W/m2
21:56 63.9 °F /  17.7 °C 43.2 °F /  6.2 °C 30.1in /  1020.7hPa Calm   1mph /  1.6km/h 47% 0in /  0.0mm 0 W/m2
22:01 63.3 °F /  17.4 °C 43.3 °F /  6.3 °C 30.1in /  1020.7hPa Calm     48% 0in /  0.0mm 0 W/m2
22:06 63 °F /  17.2 °C 43.5 °F /  6.4 °C 30.1in /  1020.7hPa ESE 0.9mph /  1.4km/h 1mph /  1.6km/h 49% 0in /  0.0mm 0 W/m2
22:11 62.4 °F /  16.9 °C 44.1 °F /  6.7 °C 30.2in /  1021.0hPa ESE 0.9mph /  1.4km/h 2mph /  3.2km/h 51% 0in /  0.0mm 0 W/m2
22:16 62.1 °F /  16.7 °C 43.7 °F /  6.5 °C 30.2in /  1021.0hPa Calm   1mph /  1.6km/h 51% 0in /  0.0mm 0 W/m2
22:21 61.5 °F /  16.4 °C 44.2 °F /  6.8 °C 30.1in /  1020.7hPa ESE 0.9mph /  1.4km/h 1mph /  1.6km/h 53% 0in /  0.0mm 0 W/m2
22:26 61.2 °F /  16.2 °C 43.9 °F /  6.6 °C 30.2in /  1021.0hPa Calm     53% 0in /  0.0mm 0 W/m2
22:31 60.8 °F /  16 °C 44.6 °F /  7 °C 30.2in /  1021.0hPa Calm   1mph /  1.6km/h 55% 0in /  0.0mm 0 W/m2
22:36 60.3 °F /  15.7 °C 44.4 °F /  6.9 °C 30.2in /  1021.0hPa Calm   1mph /  1.6km/h 56% 0in /  0.0mm 0 W/m2
22:41 59.9 °F /  15.5 °C 44.2 °F /  6.8 °C 30.2in /  1021.0hPa Calm     56% 0in /  0.0mm 0 W/m2
22:46 59.5 °F /  15.3 °C 43.9 °F /  6.6 °C 30.2in /  1021.0hPa Calm     56% 0in /  0.0mm 0 W/m2
22:51 59.2 °F /  15.1 °C 43.9 °F /  6.6 °C 30.2in /  1021.0hPa Calm   1mph /  1.6km/h 57% 0in /  0.0mm 0 W/m2
22:56 58.6 °F /  14.8 °C 43.5 °F /  6.4 °C 30.2in /  1021.0hPa Calm     57% 0in /  0.0mm 0 W/m2
23:01 58.5 °F /  14.7 °C 43.3 °F /  6.3 °C 30.2in /  1021.0hPa ESE 0.9mph /  1.4km/h 2mph /  3.2km/h 57% 0in /  0.0mm 0 W/m2
23:06 58.3 °F /  14.6 °C 43.2 °F /  6.2 °C 30.2in /  1021.0hPa Calm   1mph /  1.6km/h 57% 0in /  0.0mm 0 W/m2
23:11 57.9 °F /  14.4 °C 43.2 °F /  6.2 °C 30.2in /  1021.0hPa ESE 0.9mph /  1.4km/h 2mph /  3.2km/h 58% 0in /  0.0mm 0 W/m2
23:16 57.7 °F /  14.3 °C 43.9 °F /  6.6 °C 30.2in /  1021.0hPa ESE 0.9mph /  1.4km/h 2mph /  3.2km/h 60% 0in /  0.0mm 0 W/m2
23:21 57.4 °F /  14.1 °C 43.7 °F /  6.5 °C 30.2in /  1021.0hPa Calm     60% 0in /  0.0mm 0 W/m2
23:26 57 °F /  13.9 °C 43.7 °F /  6.5 °C 30.2in /  1021.0hPa SW 0.9mph /  1.4km/h 3mph /  4.8km/h 61% 0in /  0.0mm 0 W/m2
23:31 57 °F /  13.9 °C 43.7 °F /  6.5 °C 30.2in /  1021.0hPa Calm     61% 0in /  0.0mm 0 W/m2
23:37 56.8 °F /  13.8 °C 43.9 °F /  6.6 °C 30.2in /  1021.0hPa Calm   1mph /  1.6km/h 62% 0in /  0.0mm 0 W/m2
23:42 56.7 °F /  13.7 °C 43.7 °F /  6.5 °C 30.2in /  1021.0hPa Calm   1mph /  1.6km/h 62% 0in /  0.0mm 0 W/m2
23:47 56.5 °F /  13.6 °C 43.7 °F /  6.5 °C 30.2in /  1021.0hPa SW 0.9mph /  1.4km/h 1mph /  1.6km/h 62% 0in /  0.0mm 0 W/m2
23:52 56.1 °F /  13.4 °C 43.3 °F /  6.3 °C 30.2in /  1021.0hPa Calm     62% 0in /  0.0mm 0 W/m2
23:57 55.9 °F /  13.3 °C 43.5 °F /  6.4 °C 30.2in /  1021.0hPa Calm     63% 0in /  0.0mm 0 W/m2
Juneau County Weather
Compliments of Weather Underground - 4 mb